createdAt,value
2023-05-01T00:01:11.913Z,62.75
2023-05-01T00:03:39.108Z,62.73
2023-05-01T00:06:07.542Z,62.68
2023-05-01T00:08:34.843Z,62.58
2023-05-01T00:11:03.224Z,62.56
2023-05-01T00:13:31.850Z,62.45
2023-05-01T00:15:59.039Z,62.58
2023-05-01T00:18:26.224Z,62.60
2023-05-01T00:20:53.157Z,62.58
2023-05-01T00:23:20.584Z,62.58
2023-05-01T00:25:47.481Z,62.58
2023-05-01T00:28:15.143Z,62.56
2023-05-01T00:30:42.101Z,62.62
2023-05-01T00:33:12.202Z,62.70
2023-05-01T00:35:39.091Z,62.62
2023-05-01T00:38:06.830Z,62.53
2023-05-01T00:40:42.268Z,62.58
2023-05-01T00:43:10.723Z,62.63
2023-05-01T00:45:38.864Z,62.64
2023-05-01T00:48:05.923Z,62.78
2023-05-01T00:50:32.933Z,62.97
2023-05-01T00:53:00.170Z,63.20
2023-05-01T00:55:28.370Z,63.46
2023-05-01T00:57:55.738Z,63.56
2023-05-01T01:00:24.897Z,63.70
2023-05-01T01:02:52.269Z,63.80
2023-05-01T01:05:19.316Z,64.18
2023-05-01T01:08:19.979Z,64.59
2023-05-01T01:10:51.042Z,65.09
2023-05-01T01:13:27.912Z,65.37
2023-05-01T01:16:06.300Z,65.47
2023-05-01T01:18:37.851Z,65.47
2023-05-01T01:21:29.461Z,65.37
2023-05-01T01:24:33.606Z,65.19
2023-05-01T01:27:45.812Z,65.01
2023-05-01T01:30:30.945Z,64.89
2023-05-01T01:33:01.050Z,64.84
2023-05-01T01:35:29.354Z,64.58
2023-05-01T01:38:05.684Z,64.33
2023-05-01T01:40:50.167Z,63.91
2023-05-01T01:43:17.232Z,63.46
2023-05-01T01:45:47.012Z,63.06
2023-05-01T01:48:17.895Z,62.68
2023-05-01T01:50:45.332Z,62.52
2023-05-01T01:53:14.792Z,62.43
2023-05-01T01:55:42.314Z,62.26
2023-05-01T01:58:10.108Z,62.18
2023-05-01T02:00:37.613Z,62.08
2023-05-01T02:03:06.163Z,62.04
2023-05-01T02:05:35.222Z,62.05
2023-05-01T02:08:02.290Z,62.01
2023-05-01T02:10:32.911Z,62.00
2023-05-01T02:13:00.332Z,62.00
2023-05-01T02:15:27.612Z,62.09
2023-05-01T02:17:54.711Z,62.30
2023-05-01T02:20:21.861Z,62.40
2023-05-01T02:22:50.217Z,62.55
2023-05-01T02:25:17.437Z,62.68
2023-05-01T02:27:50.167Z,62.87
2023-05-01T02:30:18.221Z,62.99
2023-05-01T02:32:45.289Z,63.23
2023-05-01T02:35:12.228Z,63.42
2023-05-01T02:37:39.158Z,63.51
2023-05-01T02:40:07.159Z,63.65
2023-05-01T02:42:35.014Z,63.67
2023-05-01T02:45:11.894Z,63.63
2023-05-01T02:47:39.302Z,63.70
2023-05-01T02:50:07.577Z,63.61
2023-05-01T02:52:34.683Z,63.52
2023-05-01T02:55:21.830Z,63.38
2023-05-01T02:57:50.811Z,63.30
2023-05-01T03:00:18.063Z,63.16
2023-05-01T03:02:45.379Z,62.95
2023-05-01T03:05:12.459Z,62.80
2023-05-01T03:07:39.428Z,62.64
2023-05-01T03:10:09.697Z,62.53
2023-05-01T03:12:36.879Z,62.37
2023-05-01T03:15:04.183Z,62.44
2023-05-01T03:17:31.930Z,62.43
2023-05-01T03:19:58.844Z,62.52
2023-05-01T03:22:29.067Z,62.52
2023-05-01T03:24:56.037Z,62.73
2023-05-01T03:27:23.147Z,62.83
2023-05-01T03:29:50.047Z,62.95
2023-05-01T03:32:18.020Z,63.04
2023-05-01T03:34:45.839Z,63.11
2023-05-01T03:37:13.047Z,63.15
2023-05-01T03:39:40.334Z,63.14
2023-05-01T03:42:25.735Z,63.06
2023-05-01T03:44:56.706Z,62.66
2023-05-01T03:47:24.027Z,62.16
2023-05-01T03:49:50.894Z,61.54
2023-05-01T03:52:17.735Z,60.74
2023-05-01T03:54:45.115Z,60.21
2023-05-01T03:57:22.817Z,59.49
2023-05-01T03:59:50.177Z,58.87
2023-05-01T04:02:17.533Z,58.37
2023-05-01T04:04:45.433Z,57.69
2023-05-01T04:07:15.994Z,57.57
2023-05-01T04:09:43.334Z,57.36
2023-05-01T04:12:13.050Z,57.28
2023-05-01T04:14:40.113Z,56.93
2023-05-01T04:17:09.859Z,56.81
2023-05-01T04:19:37.770Z,56.53
2023-05-01T04:22:05.142Z,56.27
2023-05-01T04:24:35.467Z,56.13
2023-05-01T04:27:04.306Z,55.72
2023-05-01T04:29:31.920Z,55.39
2023-05-01T04:31:59.424Z,55.30
2023-05-01T04:34:29.023Z,55.06
2023-05-01T04:36:56.778Z,54.77
2023-05-01T04:39:23.747Z,54.75
2023-05-01T04:41:50.842Z,54.47
2023-05-01T04:44:18.008Z,54.06
2023-05-01T04:46:45.616Z,53.82
2023-05-01T04:49:12.555Z,53.66
2023-05-01T04:51:39.451Z,53.25
2023-05-01T04:54:08.549Z,52.96
2023-05-01T04:56:37.735Z,52.32
2023-05-01T04:59:04.727Z,52.01
2023-05-01T05:01:33.184Z,51.45
2023-05-01T05:04:00.295Z,51.14
2023-05-01T05:06:27.619Z,50.72
2023-05-01T05:08:55.265Z,50.40
2023-05-01T05:11:22.143Z,50.02
2023-05-01T05:13:52.156Z,49.09
2023-05-01T05:16:20.092Z,48.28
2023-05-01T05:18:46.986Z,47.86
2023-05-01T05:21:16.263Z,47.88
2023-05-01T05:23:47.717Z,47.81
2023-05-01T05:26:14.569Z,47.01
2023-05-01T05:28:42.110Z,46.67
2023-05-01T05:31:10.092Z,45.96
2023-05-01T05:33:38.291Z,45.63
2023-05-01T05:36:06.141Z,45.59
2023-05-01T05:38:40.161Z,45.38
2023-05-01T05:41:08.106Z,44.90
2023-05-01T05:43:36.869Z,44.67
2023-05-01T05:46:05.608Z,44.49
2023-05-01T05:48:35.597Z,44.26
2023-05-01T05:51:03.996Z,43.95
2023-05-01T05:53:30.956Z,43.51
2023-05-01T05:55:58.368Z,42.78
2023-05-01T05:58:25.403Z,42.53
2023-05-01T06:00:55.527Z,42.27
2023-05-01T06:03:24.310Z,41.99
2023-05-01T06:05:56.100Z,41.57
2023-05-01T06:08:23.970Z,41.65
2023-05-01T06:10:52.040Z,41.39
2023-05-01T06:13:19.604Z,40.92
2023-05-01T06:15:48.617Z,40.74
2023-05-01T06:18:16.592Z,40.83
2023-05-01T06:20:43.860Z,40.57
2023-05-01T06:23:14.155Z,40.43
2023-05-01T06:25:54.533Z,40.60
2023-05-01T06:28:24.242Z,40.54
2023-05-01T06:30:51.315Z,40.27
2023-05-01T06:33:21.559Z,39.68
2023-05-01T06:35:59.489Z,38.89
2023-05-01T06:38:27.109Z,37.38
2023-05-01T06:40:55.425Z,37.19
2023-05-01T06:43:22.316Z,37.29
2023-05-01T06:45:49.610Z,37.42
2023-05-01T06:48:16.674Z,37.48
2023-05-01T06:50:43.589Z,36.01
2023-05-01T06:53:10.832Z,35.62
2023-05-01T06:55:37.878Z,35.86
2023-05-01T06:58:12.727Z,35.90
2023-05-01T07:00:50.606Z,34.82
2023-05-01T07:03:17.846Z,34.06
2023-05-01T07:05:44.880Z,33.42
2023-05-01T07:08:12.239Z,33.41
2023-05-01T07:10:41.800Z,33.54
2023-05-01T07:13:09.346Z,33.60
2023-05-01T07:15:37.024Z,33.57
2023-05-01T07:18:05.602Z,33.07
2023-05-01T07:20:33.986Z,32.59
2023-05-01T07:23:01.459Z,32.67
2023-05-01T07:25:28.609Z,32.18
2023-05-01T07:27:55.962Z,31.19
2023-05-01T07:30:23.538Z,29.25
2023-05-01T07:32:50.727Z,28.25
2023-05-01T07:35:17.629Z,27.48
2023-05-01T07:37:44.631Z,27.12
2023-05-01T07:40:11.537Z,26.77
2023-05-01T07:42:38.946Z,26.85
2023-05-01T07:45:07.038Z,26.23
2023-05-01T07:47:34.226Z,26.30
2023-05-01T07:50:04.387Z,26.43
2023-05-01T07:52:32.502Z,26.32
2023-05-01T07:54:59.274Z,26.24
2023-05-01T07:57:26.286Z,25.70
2023-05-01T07:59:56.423Z,25.43
2023-05-01T08:02:23.865Z,25.74
2023-05-01T08:04:51.131Z,26.75
2023-05-01T08:07:19.175Z,26.83
2023-05-01T08:09:46.186Z,26.46
2023-05-01T08:12:13.262Z,26.64
2023-05-01T08:14:40.235Z,26.62
2023-05-01T08:17:07.293Z,26.64
2023-05-01T08:19:35.341Z,26.13
2023-05-01T08:22:02.145Z,26.16
2023-05-01T08:24:29.379Z,26.41
2023-05-01T08:26:56.417Z,26.46
2023-05-01T08:29:23.454Z,26.01
2023-05-01T08:31:51.674Z,25.76
2023-05-01T08:34:18.705Z,25.13
2023-05-01T08:36:45.571Z,25.28
2023-05-01T08:39:12.833Z,25.60
2023-05-01T08:41:46.832Z,25.60
2023-05-01T08:44:15.903Z,25.99
2023-05-01T08:47:06.272Z,25.62
2023-05-01T08:49:34.365Z,24.99
2023-05-01T08:52:02.000Z,25.57
2023-05-01T08:54:30.610Z,24.81
2023-05-01T08:57:02.047Z,24.31
2023-05-01T08:59:33.659Z,24.00
2023-05-01T09:02:02.186Z,23.90
2023-05-01T09:04:31.852Z,24.17
2023-05-01T09:07:00.478Z,24.19
2023-05-01T09:09:30.670Z,23.57
2023-05-01T09:12:01.148Z,23.69
2023-05-01T09:14:29.275Z,24.02
2023-05-01T09:16:56.585Z,23.95
2023-05-01T09:19:24.150Z,23.49
2023-05-01T09:21:50.966Z,23.38
2023-05-01T09:24:18.589Z,22.96
2023-05-01T09:26:45.496Z,22.97
2023-05-01T09:29:14.572Z,23.17
2023-05-01T09:31:41.358Z,23.13
2023-05-01T09:34:10.528Z,23.07
2023-05-01T09:36:40.357Z,23.22
2023-05-01T09:39:07.244Z,23.01
2023-05-01T09:41:34.421Z,22.77
2023-05-01T09:44:01.710Z,22.32
2023-05-01T09:46:29.048Z,22.36
2023-05-01T09:49:00.487Z,22.37
2023-05-01T09:51:28.987Z,22.20
2023-05-01T09:53:59.968Z,22.59
2023-05-01T09:56:31.970Z,22.98
2023-05-01T09:59:15.887Z,23.43
2023-05-01T10:01:44.552Z,22.70
2023-05-01T10:04:12.014Z,23.02
2023-05-01T10:06:39.168Z,22.75
2023-05-01T10:09:07.491Z,23.06
2023-05-01T10:11:51.773Z,23.16
2023-05-01T10:14:19.878Z,23.83
2023-05-01T10:16:46.749Z,22.80
2023-05-01T10:19:14.679Z,22.38
2023-05-01T10:21:42.276Z,22.53
2023-05-01T10:24:09.906Z,22.53
2023-05-01T10:26:37.532Z,22.48
2023-05-01T10:29:04.785Z,22.88
2023-05-01T10:31:33.283Z,23.31
2023-05-01T10:34:01.573Z,22.49
2023-05-01T10:36:33.462Z,22.35
2023-05-01T10:39:00.304Z,22.62
2023-05-01T10:41:58.275Z,22.10
2023-05-01T10:44:27.754Z,22.89
2023-05-01T10:46:55.205Z,22.57
2023-05-01T10:49:22.377Z,22.49
2023-05-01T10:52:04.309Z,22.85
2023-05-01T10:54:34.216Z,22.47
2023-05-01T10:57:02.915Z,22.41
2023-05-01T10:59:58.414Z,23.36
2023-05-01T11:02:26.999Z,23.81
2023-05-01T11:04:56.042Z,23.33
2023-05-01T11:07:24.488Z,23.18
2023-05-01T11:09:57.176Z,22.60
2023-05-01T11:12:46.111Z,23.24
2023-05-01T11:15:30.042Z,23.09
2023-05-01T11:17:57.314Z,22.91
2023-05-01T11:20:24.122Z,22.00
2023-05-01T11:22:52.188Z,22.30
2023-05-01T11:25:22.427Z,22.29
2023-05-01T11:27:52.846Z,22.07
2023-05-01T11:30:21.742Z,21.92
2023-05-01T11:32:55.661Z,22.01
2023-05-01T11:35:24.065Z,22.01
2023-05-01T11:37:51.267Z,21.92
2023-05-01T11:40:20.421Z,21.85
2023-05-01T11:42:48.489Z,21.77
2023-05-01T11:45:15.371Z,21.82
2023-05-01T11:47:43.618Z,21.82
2023-05-01T11:50:11.393Z,21.94
2023-05-01T11:52:50.546Z,21.93
2023-05-01T11:55:17.391Z,21.69
2023-05-01T11:57:51.928Z,22.03
2023-05-01T12:00:31.707Z,21.89
2023-05-01T12:02:59.908Z,22.00
2023-05-01T12:05:29.618Z,22.21
2023-05-01T12:08:18.173Z,22.73
2023-05-01T12:10:48.502Z,22.40
2023-05-01T12:13:16.172Z,22.72
2023-05-01T12:15:47.133Z,22.07
2023-05-01T12:18:15.072Z,21.25
2023-05-01T12:20:46.957Z,21.47
2023-05-01T12:23:15.729Z,21.94
2023-05-01T12:25:43.010Z,21.73
2023-05-01T12:28:12.729Z,22.09
2023-05-01T12:30:40.266Z,22.14
2023-05-01T12:33:18.511Z,22.25
2023-05-01T12:35:49.630Z,21.77
2023-05-01T12:38:25.869Z,21.67
2023-05-01T12:40:57.232Z,21.75
2023-05-01T12:43:36.925Z,21.51
2023-05-01T12:46:04.981Z,21.80
2023-05-01T12:48:33.709Z,21.50
2023-05-01T12:51:00.820Z,21.46
2023-05-01T12:53:28.421Z,20.67
2023-05-01T12:56:08.126Z,21.08
2023-05-01T12:58:37.094Z,21.36
2023-05-01T13:01:04.614Z,21.17
2023-05-01T13:03:33.102Z,21.14
2023-05-01T13:06:01.880Z,21.54
2023-05-01T13:08:30.311Z,21.67
2023-05-01T13:11:03.410Z,21.57
2023-05-01T13:13:34.061Z,22.03
2023-05-01T13:16:12.037Z,21.91
2023-05-01T13:18:53.308Z,21.24
2023-05-01T13:21:21.547Z,21.04
2023-05-01T13:24:06.840Z,21.21
2023-05-01T13:26:35.345Z,21.10
2023-05-01T13:29:05.245Z,20.83
2023-05-01T13:31:32.454Z,20.92
2023-05-01T13:34:01.663Z,20.43
2023-05-01T13:36:36.715Z,20.58
2023-05-01T13:39:04.145Z,20.47
2023-05-01T13:41:35.129Z,20.45
2023-05-01T13:44:02.138Z,20.24
2023-05-01T13:46:29.276Z,20.30
2023-05-01T13:48:58.598Z,20.46
2023-05-01T13:51:26.671Z,20.49
2023-05-01T13:53:55.100Z,20.85
2023-05-01T13:56:23.983Z,20.64
2023-05-01T13:58:51.397Z,20.61
2023-05-01T14:01:23.004Z,20.71
2023-05-01T14:03:50.028Z,20.54
2023-05-01T14:06:25.810Z,20.59
2023-05-01T14:08:53.905Z,20.74
2023-05-01T14:11:23.223Z,20.78
2023-05-01T14:13:50.742Z,20.27
2023-05-01T14:16:26.506Z,20.43
2023-05-01T14:18:57.034Z,20.28
2023-05-01T14:21:27.178Z,19.89
2023-05-01T14:23:56.803Z,19.56
2023-05-01T14:26:24.446Z,19.06
2023-05-01T14:28:51.528Z,18.99
2023-05-01T14:31:35.323Z,18.47
2023-05-01T14:40:37.034Z,17.74
2023-05-01T14:43:04.110Z,17.20
2023-05-01T14:49:52.060Z,16.61
2023-05-01T14:53:00.314Z,16.21
2023-05-01T14:55:34.372Z,15.79
2023-05-01T14:58:07.389Z,15.91
2023-05-01T15:00:34.516Z,15.85
2023-05-01T15:03:04.909Z,15.46
2023-05-01T15:05:38.142Z,15.31
2023-05-01T15:08:06.456Z,15.00
2023-05-01T15:10:33.469Z,14.92
2023-05-01T15:13:00.505Z,14.67
2023-05-01T15:15:29.366Z,14.39
2023-05-01T15:17:56.238Z,14.70
2023-05-01T15:20:23.144Z,14.85
2023-05-01T15:22:49.983Z,14.52
2023-05-01T15:25:17.214Z,14.36
2023-05-01T15:27:45.854Z,14.10
2023-05-01T15:30:14.318Z,14.34
2023-05-01T15:32:41.548Z,14.37
2023-05-01T15:35:08.709Z,14.33
2023-05-01T15:37:37.047Z,14.23
2023-05-01T15:40:04.964Z,14.14
2023-05-01T15:42:31.883Z,14.17
2023-05-01T15:44:59.669Z,14.24
2023-05-01T15:47:28.770Z,14.24
2023-05-01T15:49:57.522Z,14.03
2023-05-01T15:52:25.227Z,14.24
2023-05-01T15:54:52.338Z,14.18
2023-05-01T15:57:19.156Z,14.16
2023-05-01T15:59:50.694Z,14.11
2023-05-01T16:02:19.096Z,14.32
2023-05-01T16:04:47.374Z,13.83
2023-05-01T16:07:16.393Z,13.62
2023-05-01T16:09:44.795Z,13.89
2023-05-01T16:12:11.778Z,13.96
2023-05-01T16:14:40.507Z,14.22
2023-05-01T16:17:07.763Z,14.33
2023-05-01T16:19:38.558Z,14.49
2023-05-01T16:22:06.465Z,14.73
2023-05-01T16:24:34.118Z,14.42
2023-05-01T16:27:01.192Z,14.57
2023-05-01T16:29:28.190Z,14.63
2023-05-01T16:31:55.171Z,14.72
2023-05-01T16:34:23.882Z,15.04
2023-05-01T16:36:51.197Z,15.04
2023-05-01T16:39:21.406Z,15.16
2023-05-01T16:41:52.992Z,15.41
2023-05-01T16:44:21.385Z,15.58
2023-05-01T16:46:55.763Z,15.78
2023-05-01T16:49:23.449Z,15.73
2023-05-01T16:51:50.365Z,15.82
2023-05-01T16:54:17.298Z,16.39
2023-05-01T16:56:44.141Z,16.71
2023-05-01T16:59:10.987Z,17.26
2023-05-01T17:01:37.942Z,17.95
2023-05-01T17:04:05.731Z,18.76
2023-05-01T17:06:33.481Z,19.39
2023-05-01T17:09:00.566Z,19.77
2023-05-01T17:11:30.429Z,20.33
2023-05-01T17:14:03.234Z,20.85
2023-05-01T17:16:31.951Z,21.27
2023-05-01T17:18:58.922Z,21.60
2023-05-01T17:21:28.376Z,21.90
2023-05-01T17:23:55.582Z,22.36
2023-05-01T17:26:22.496Z,22.67
2023-05-01T17:28:50.156Z,22.88
2023-05-01T17:31:19.938Z,23.19
2023-05-01T17:33:48.704Z,23.50
2023-05-01T17:36:15.817Z,23.72
2023-05-01T17:38:45.350Z,24.00
2023-05-01T17:41:12.125Z,24.25
2023-05-01T17:43:39.126Z,24.35
2023-05-01T17:46:06.481Z,24.66
2023-05-01T17:48:33.988Z,24.98
2023-05-01T17:51:01.084Z,25.29
2023-05-01T17:53:36.971Z,25.58
2023-05-01T17:56:03.890Z,25.75
2023-05-01T17:58:34.602Z,25.93
2023-05-01T18:01:12.343Z,26.11
2023-05-01T18:04:27.970Z,26.45
2023-05-01T18:06:57.554Z,26.82
2023-05-01T18:09:29.135Z,27.62
2023-05-01T18:11:57.173Z,28.42
2023-05-01T18:14:25.607Z,29.40
2023-05-01T18:22:54.272Z,31.53
2023-05-01T18:25:25.794Z,32.41
2023-05-01T18:27:59.077Z,33.09
2023-05-01T18:30:30.238Z,33.49
2023-05-01T18:32:58.123Z,33.71
2023-05-01T18:35:25.110Z,33.47
2023-05-01T18:37:53.407Z,33.47
2023-05-01T18:40:25.017Z,33.55
2023-05-01T18:45:55.198Z,34.28
2023-05-01T18:48:22.735Z,34.55
2023-05-01T18:51:01.205Z,34.98
2023-05-01T18:53:34.740Z,35.51
2023-05-01T18:56:01.675Z,36.11
2023-05-01T18:58:29.749Z,36.35
2023-05-01T19:00:57.501Z,36.78
2023-05-01T19:03:27.138Z,37.17
2023-05-01T19:05:54.083Z,37.67
2023-05-01T19:08:20.936Z,38.23
2023-05-01T19:10:48.049Z,38.44
2023-05-01T19:13:16.709Z,38.92
2023-05-01T19:15:44.011Z,39.43
2023-05-01T19:18:14.497Z,39.78
2023-05-01T19:20:42.758Z,39.80
2023-05-01T19:23:09.559Z,39.77
2023-05-01T19:25:41.330Z,39.58
2023-05-01T19:28:08.446Z,39.61
2023-05-01T19:30:38.482Z,39.38
2023-05-01T19:33:07.757Z,39.26
2023-05-01T19:35:35.127Z,39.18
2023-05-01T19:38:02.443Z,39.22
2023-05-01T19:40:29.886Z,39.19
2023-05-01T19:42:57.028Z,39.35
2023-05-01T19:45:27.238Z,39.17
2023-05-01T19:47:54.594Z,39.10
2023-05-01T19:50:25.384Z,38.94
2023-05-01T19:53:06.564Z,39.10
2023-05-01T19:55:33.974Z,39.59
2023-05-01T19:58:03.652Z,40.57
2023-05-01T20:00:37.381Z,41.92
2023-05-01T20:03:05.153Z,43.32
2023-05-01T20:05:32.523Z,44.88
2023-05-01T20:08:01.496Z,46.08
2023-05-01T20:13:56.365Z,47.49
2023-05-01T20:16:23.361Z,47.61
2023-05-01T20:18:51.557Z,47.70
2023-05-01T20:21:19.051Z,48.25
2023-05-01T20:23:45.907Z,48.14
2023-05-01T20:26:12.873Z,48.15
2023-05-01T20:28:39.716Z,48.61
2023-05-01T20:31:06.640Z,48.86
2023-05-01T20:33:34.038Z,49.22
2023-05-01T20:36:03.756Z,49.69
2023-05-01T20:38:31.165Z,49.91
2023-05-01T20:40:57.967Z,50.30
2023-05-01T20:43:26.464Z,50.48
2023-05-01T20:45:53.321Z,50.70
2023-05-01T20:48:20.514Z,50.94
2023-05-01T20:50:49.374Z,51.37
2023-05-01T20:53:16.421Z,51.63
2023-05-01T20:55:43.268Z,51.83
2023-05-01T20:58:13.378Z,51.92
2023-05-01T21:00:40.340Z,52.12
2023-05-01T21:03:08.768Z,52.08
2023-05-01T21:05:35.649Z,52.25
2023-05-01T21:08:02.712Z,52.50
2023-05-01T21:10:29.713Z,52.71
2023-05-01T21:12:57.304Z,52.92
2023-05-01T21:15:24.339Z,53.22
2023-05-01T21:17:51.476Z,53.39
2023-05-01T21:20:33.077Z,53.77
2023-05-01T21:23:04.059Z,53.97
2023-05-01T21:25:31.284Z,54.13
2023-05-01T21:28:01.440Z,54.44
2023-05-01T21:30:32.561Z,54.91
2023-05-01T21:33:05.120Z,55.06
2023-05-01T21:35:32.172Z,55.27
2023-05-01T21:38:01.378Z,55.38
2023-05-01T21:40:28.462Z,55.60
2023-05-01T21:42:58.234Z,55.65
2023-05-01T21:45:25.214Z,55.75
2023-05-01T21:47:52.749Z,55.76
2023-05-01T21:50:20.379Z,55.87
2023-05-01T21:52:48.535Z,55.87
2023-05-01T21:55:16.681Z,55.97
2023-05-01T21:57:44.030Z,56.16
2023-05-01T22:00:11.914Z,56.41
2023-05-01T22:02:44.158Z,56.76
2023-05-01T22:05:15.511Z,57.03
2023-05-01T22:07:44.613Z,57.26
2023-05-01T22:10:14.805Z,57.39
2023-05-01T22:12:42.389Z,57.52
2023-05-01T22:15:11.091Z,57.69
2023-05-01T22:17:39.776Z,57.95
2023-05-01T22:20:09.675Z,58.22
2023-05-01T22:22:38.575Z,58.46
2023-05-01T22:25:06.133Z,58.68
2023-05-01T22:27:34.099Z,58.79
2023-05-01T22:30:01.632Z,58.90
2023-05-01T22:32:29.358Z,58.97
2023-05-01T22:34:56.300Z,59.04
2023-05-01T22:37:24.980Z,59.27
2023-05-01T22:39:52.642Z,59.52
2023-05-01T22:42:19.611Z,59.72
2023-05-01T22:44:46.580Z,59.79
2023-05-01T22:47:13.576Z,59.85
2023-05-01T22:49:41.067Z,60.01
2023-05-01T22:52:08.009Z,60.03
2023-05-01T22:54:35.036Z,60.09
2023-05-01T22:57:02.598Z,60.06
2023-05-01T22:59:29.954Z,60.15
2023-05-01T23:01:56.908Z,60.19
2023-05-01T23:04:23.744Z,60.13
2023-05-01T23:06:51.609Z,60.17
2023-05-01T23:09:18.561Z,60.18
2023-05-01T23:11:46.006Z,60.17
2023-05-01T23:14:16.404Z,60.24
2023-05-01T23:16:44.133Z,60.31
2023-05-01T23:19:30.211Z,60.60
2023-05-01T23:22:10.672Z,60.75
2023-05-01T23:24:48.818Z,60.99
2023-05-01T23:27:16.568Z,61.09
2023-05-01T23:29:56.928Z,61.11
2023-05-01T23:32:28.830Z,61.17
2023-05-01T23:35:03.160Z,61.26
2023-05-01T23:37:30.640Z,61.24
2023-05-01T23:40:00.116Z,61.31
2023-05-01T23:42:28.393Z,61.32
2023-05-01T23:44:56.318Z,61.27
2023-05-01T23:47:23.697Z,61.25
2023-05-01T23:49:50.915Z,61.16
2023-05-01T23:52:18.261Z,61.13
2023-05-01T23:54:45.246Z,61.01
2023-05-01T23:57:12.396Z,60.96
2023-05-01T23:59:39.459Z,61.01
